createdAt,value
2017-05-22T00:00:31.660Z,0
2017-05-22T00:01:42.741Z,0
2017-05-22T00:02:53.964Z,0
2017-05-22T00:04:05.184Z,0
2017-05-22T00:05:16.191Z,0
2017-05-22T00:06:27.195Z,0
2017-05-22T00:07:38.471Z,0
2017-05-22T00:08:49.483Z,0
2017-05-22T00:10:00.501Z,0
2017-05-22T00:11:11.720Z,0
2017-05-22T00:12:22.941Z,0
2017-05-22T00:13:34.011Z,0
2017-05-22T00:14:45.018Z,0
2017-05-22T00:15:56.028Z,0
2017-05-22T00:17:07.035Z,0
2017-05-22T00:18:18.264Z,0
2017-05-22T00:19:29.329Z,0
2017-05-22T00:20:40.345Z,0
2017-05-22T00:21:51.347Z,0
2017-05-22T00:23:02.364Z,0
2017-05-22T00:24:13.376Z,0
2017-05-22T00:25:24.643Z,0
2017-05-22T00:26:35.660Z,0
2017-05-22T00:27:46.887Z,0
2017-05-22T00:28:57.906Z,0
2017-05-22T00:30:08.916Z,0
2017-05-22T00:31:19.991Z,0
2017-05-22T00:32:31.015Z,0
2017-05-22T00:33:42.025Z,0
2017-05-22T00:34:53.040Z,0
2017-05-22T00:36:04.051Z,0
2017-05-22T00:37:15.124Z,0
2017-05-22T00:38:26.132Z,0
2017-05-22T00:39:37.150Z,0
2017-05-22T00:40:48.173Z,0
2017-05-22T00:41:59.191Z,0
2017-05-22T00:43:10.248Z,0
2017-05-22T00:44:21.463Z,0
2017-05-22T00:45:32.676Z,0
2017-05-22T00:46:43.684Z,0
2017-05-22T00:47:54.906Z,0
2017-05-22T00:49:06.158Z,0
2017-05-22T00:50:17.167Z,0
2017-05-22T00:51:28.186Z,0
2017-05-22T00:52:39.199Z,0
2017-05-22T00:53:50.224Z,0
2017-05-22T00:55:01.536Z,0
2017-05-22T00:56:12.546Z,0
2017-05-22T00:57:23.551Z,0
2017-05-22T00:58:34.569Z,0
2017-05-22T00:59:45.592Z,0
2017-05-22T01:00:56.609Z,0
2017-05-22T01:02:07.616Z,0
2017-05-22T01:03:18.622Z,0
2017-05-22T01:04:29.624Z,0
2017-05-22T01:05:40.894Z,0
2017-05-22T01:06:52.109Z,0
2017-05-22T01:08:03.124Z,0
2017-05-22T01:09:14.335Z,0
2017-05-22T01:10:25.355Z,0
2017-05-22T01:11:36.425Z,0
2017-05-22T01:12:47.646Z,0
2017-05-22T01:13:58.663Z,0
2017-05-22T01:15:09.678Z,0
2017-05-22T01:16:20.688Z,0
2017-05-22T01:17:31.746Z,0
2017-05-22T01:18:42.755Z,0
2017-05-22T01:19:53.768Z,0
2017-05-22T01:21:04.776Z,0
2017-05-22T01:22:15.810Z,0
2017-05-22T01:23:26.880Z,0
2017-05-22T01:24:37.896Z,0
2017-05-22T01:25:48.911Z,0
2017-05-22T01:26:59.926Z,0
2017-05-22T01:28:11.340Z,0
2017-05-22T01:29:22.402Z,0
2017-05-22T01:30:33.423Z,0
2017-05-22T01:31:44.431Z,0
2017-05-22T01:32:55.442Z,0
2017-05-22T01:34:06.462Z,0
2017-05-22T01:35:17.529Z,0
2017-05-22T01:36:28.539Z,0
2017-05-22T01:37:39.556Z,0
2017-05-22T01:38:50.595Z,0
2017-05-22T01:40:01.609Z,0
2017-05-22T01:41:12.672Z,0
2017-05-22T01:42:23.679Z,0
2017-05-22T01:43:34.696Z,0
2017-05-22T01:44:45.714Z,0
2017-05-22T01:45:56.732Z,0
2017-05-22T01:47:07.993Z,0
2017-05-22T01:48:19.014Z,0
2017-05-22T01:49:30.014Z,0
2017-05-22T01:50:41.020Z,0
2017-05-22T01:51:52.035Z,0
2017-05-22T01:53:03.102Z,0
2017-05-22T01:54:14.117Z,0
2017-05-22T01:55:25.126Z,0
2017-05-22T01:56:36.145Z,0
2017-05-22T01:57:47.168Z,0
2017-05-22T01:58:58.701Z,0
2017-05-22T02:00:09.922Z,0
2017-05-22T02:01:20.940Z,0
2017-05-22T02:02:31.949Z,0
2017-05-22T02:03:42.964Z,0
2017-05-22T02:04:54.031Z,0
2017-05-22T02:06:05.249Z,0
2017-05-22T02:07:16.466Z,0
2017-05-22T02:08:27.514Z,0
2017-05-22T02:09:38.538Z,0
2017-05-22T02:10:49.944Z,0
2017-05-22T02:12:00.961Z,0
2017-05-22T02:13:11.968Z,0
2017-05-22T02:14:22.990Z,0
2017-05-22T02:15:34.047Z,0
2017-05-22T02:16:45.045Z,0
2017-05-22T02:17:56.057Z,0
2017-05-22T02:19:07.072Z,0
2017-05-22T02:20:18.095Z,0
2017-05-22T02:21:29.165Z,0
2017-05-22T02:22:40.175Z,0
2017-05-22T02:23:51.194Z,0
2017-05-22T02:25:02.203Z,0
2017-05-22T02:26:13.413Z,0
2017-05-22T02:27:24.467Z,0
2017-05-22T02:28:35.486Z,0
2017-05-22T02:29:46.503Z,0
2017-05-22T02:30:57.513Z,0
2017-05-22T02:32:08.524Z,0
2017-05-22T02:33:19.778Z,0
2017-05-22T02:34:30.781Z,0
2017-05-22T02:35:41.992Z,0
2017-05-22T02:36:52.993Z,0
2017-05-22T02:38:04.205Z,0
2017-05-22T02:39:15.264Z,0
2017-05-22T02:40:26.270Z,0
2017-05-22T02:41:37.276Z,0
2017-05-22T02:42:48.483Z,0
2017-05-22T02:43:59.502Z,0
2017-05-22T02:45:10.768Z,0
2017-05-22T02:46:21.986Z,0
2017-05-22T02:47:32.988Z,0
2017-05-22T02:48:44.008Z,0
2017-05-22T02:49:55.017Z,0
2017-05-22T02:51:06.442Z,0
2017-05-22T02:52:17.653Z,0
2017-05-22T02:53:28.675Z,0
2017-05-22T02:54:39.697Z,0
2017-05-22T02:55:50.941Z,0
2017-05-22T02:57:01.953Z,0
2017-05-22T02:58:12.953Z,0
2017-05-22T02:59:23.963Z,0
2017-05-22T03:00:35.175Z,0
2017-05-22T03:01:46.379Z,0
2017-05-22T03:02:57.398Z,0
2017-05-22T03:04:08.424Z,0
2017-05-22T03:05:19.417Z,0
2017-05-22T03:06:30.473Z,0
2017-05-22T03:07:41.491Z,0
2017-05-22T03:08:52.528Z,0
2017-05-22T03:10:03.543Z,0
2017-05-22T03:11:14.550Z,0
2017-05-22T03:12:25.617Z,0
2017-05-22T03:13:36.825Z,0
2017-05-22T03:14:48.041Z,0
2017-05-22T03:15:59.054Z,0
2017-05-22T03:17:10.059Z,0
2017-05-22T03:18:21.110Z,5
2017-05-22T03:19:32.133Z,5
2017-05-22T03:20:43.167Z,5
2017-05-22T03:21:54.176Z,5
2017-05-22T03:23:05.204Z,5
2017-05-22T03:24:16.272Z,5
2017-05-22T03:25:27.489Z,5
2017-05-22T03:26:38.502Z,5
2017-05-22T03:27:49.721Z,5
2017-05-22T03:29:00.737Z,5
2017-05-22T03:30:11.809Z,10
2017-05-22T03:31:22.819Z,10
2017-05-22T03:32:33.844Z,10
2017-05-22T03:33:44.883Z,10
2017-05-22T03:34:55.966Z,15
2017-05-22T03:36:07.018Z,15
2017-05-22T03:37:18.230Z,15
2017-05-22T03:38:29.233Z,15
2017-05-22T03:39:40.436Z,20
2017-05-22T03:40:51.441Z,20
2017-05-22T03:42:02.497Z,20
2017-05-22T03:43:13.509Z,20
2017-05-22T03:44:24.517Z,25
2017-05-22T03:45:35.735Z,25
2017-05-22T03:46:46.736Z,25
2017-05-22T03:47:57.798Z,30
2017-05-22T03:49:08.819Z,30
2017-05-22T03:50:20.055Z,35
2017-05-22T03:51:31.071Z,35
2017-05-22T03:52:42.096Z,35
2017-05-22T03:53:53.167Z,40
2017-05-22T03:55:04.175Z,50
2017-05-22T03:56:15.181Z,50
2017-05-22T03:57:26.192Z,60
2017-05-22T03:58:37.202Z,65
2017-05-22T03:59:48.462Z,55
2017-05-22T04:00:59.673Z,55
2017-05-22T04:02:10.688Z,60
2017-05-22T04:03:21.694Z,60
2017-05-22T04:04:32.913Z,60
2017-05-22T04:05:43.960Z,60
2017-05-22T04:06:54.974Z,65
2017-05-22T04:08:06.199Z,65
2017-05-22T04:09:17.226Z,65
2017-05-22T04:10:28.230Z,65
2017-05-22T04:11:39.291Z,70
2017-05-22T04:12:50.303Z,75
2017-05-22T04:14:01.321Z,80
2017-05-22T04:15:12.340Z,85
2017-05-22T04:16:23.353Z,95
2017-05-22T04:17:34.412Z,100
2017-05-22T04:18:45.420Z,115
2017-05-22T04:19:56.433Z,135
2017-05-22T04:21:07.457Z,145
2017-05-22T04:22:18.465Z,150
2017-05-22T04:23:29.517Z,170
2017-05-22T04:24:40.518Z,180
2017-05-22T04:25:51.538Z,215
2017-05-22T04:27:02.741Z,250
2017-05-22T04:28:13.747Z,245
2017-05-22T04:29:25.000Z,240
2017-05-22T04:30:36.014Z,255
2017-05-22T04:31:47.233Z,280
2017-05-22T04:32:58.248Z,290
2017-05-22T04:34:09.264Z,305
2017-05-22T04:35:20.530Z,325
2017-05-22T04:36:31.743Z,360
2017-05-22T04:37:42.970Z,380
2017-05-22T04:38:54.176Z,375
2017-05-22T04:40:05.194Z,375
2017-05-22T04:41:16.259Z,385
2017-05-22T04:42:27.266Z,395
2017-05-22T04:43:38.276Z,375
2017-05-22T04:44:49.295Z,330
2017-05-22T04:46:00.502Z,315
2017-05-22T04:47:11.572Z,350
2017-05-22T04:48:22.580Z,465
2017-05-22T04:49:33.808Z,555
2017-05-22T04:50:44.825Z,595
2017-05-22T04:51:55.834Z,635
2017-05-22T04:53:07.099Z,655
2017-05-22T04:54:18.112Z,670
2017-05-22T04:55:29.120Z,710
2017-05-22T04:56:40.145Z,765
2017-05-22T04:57:51.367Z,800
2017-05-22T04:59:02.430Z,800
2017-05-22T05:00:13.646Z,785
2017-05-22T05:01:24.656Z,755
2017-05-22T05:02:35.869Z,695
2017-05-22T05:03:46.887Z,625
2017-05-22T05:04:58.157Z,580
2017-05-22T05:06:09.166Z,635
2017-05-22T05:07:20.179Z,680
2017-05-22T05:08:31.182Z,655
2017-05-22T05:09:42.395Z,855
2017-05-22T05:10:53.411Z,1005
2017-05-22T05:12:04.422Z,1055
2017-05-22T05:13:15.449Z,1015
2017-05-22T05:14:26.677Z,1140
2017-05-22T05:15:37.758Z,1175
2017-05-22T05:16:48.779Z,1235
2017-05-22T05:17:59.804Z,1215
2017-05-22T05:19:11.020Z,1200
2017-05-22T05:20:22.050Z,1245
2017-05-22T05:21:33.122Z,1215
2017-05-22T05:22:44.335Z,1255
2017-05-22T05:23:55.354Z,800
2017-05-22T05:25:06.379Z,435
2017-05-22T05:26:17.385Z,625
2017-05-22T05:27:28.459Z,700
2017-05-22T05:28:39.689Z,305
2017-05-22T05:29:50.717Z,260
2017-05-22T05:31:02.137Z,250
2017-05-22T05:32:13.159Z,315
2017-05-22T05:33:24.234Z,300
2017-05-22T05:34:35.247Z,320
2017-05-22T05:35:46.271Z,315
2017-05-22T05:36:57.289Z,705
2017-05-22T05:38:08.309Z,755
2017-05-22T05:39:19.329Z,375
2017-05-22T05:40:30.344Z,425
2017-05-22T05:41:41.354Z,500
2017-05-22T05:42:52.565Z,685
2017-05-22T05:44:03.636Z,650
2017-05-22T05:45:14.855Z,475
2017-05-22T05:46:25.878Z,650
2017-05-22T05:47:37.087Z,485
2017-05-22T05:48:48.101Z,560
2017-05-22T05:49:59.169Z,720
2017-05-22T05:51:10.388Z,835
2017-05-22T05:52:21.412Z,625
2017-05-22T05:53:32.423Z,790
2017-05-22T05:54:43.439Z,735
2017-05-22T05:55:54.525Z,825
2017-05-22T05:57:05.538Z,835
2017-05-22T05:58:16.561Z,725
2017-05-22T05:59:27.576Z,1190
2017-05-22T06:00:38.794Z,1675
2017-05-22T06:01:49.867Z,1730
2017-05-22T06:03:00.889Z,1745
2017-05-22T06:04:11.911Z,1595
2017-05-22T06:05:22.930Z,1615
2017-05-22T06:06:33.950Z,1770
2017-05-22T06:07:45.032Z,1765
2017-05-22T06:08:56.060Z,1820
2017-05-22T06:10:07.299Z,1765
2017-05-22T06:11:18.311Z,1745
2017-05-22T06:12:29.330Z,1775
2017-05-22T06:13:40.392Z,1785
2017-05-22T06:14:51.619Z,1755
2017-05-22T06:16:02.647Z,1775
2017-05-22T06:17:13.676Z,1845
2017-05-22T06:18:24.904Z,1855
2017-05-22T06:19:36.177Z,1855
2017-05-22T06:20:47.204Z,1900
2017-05-22T06:21:58.221Z,1950
2017-05-22T06:23:09.259Z,1955
2017-05-22T06:24:20.282Z,1915
2017-05-22T06:25:31.351Z,1905
2017-05-22T06:26:42.370Z,1870
2017-05-22T06:27:53.387Z,1935
2017-05-22T06:29:04.483Z,1955
2017-05-22T06:30:15.513Z,1955
2017-05-22T06:31:26.599Z,1995
2017-05-22T06:32:37.635Z,1965
2017-05-22T06:33:48.663Z,1985
2017-05-22T06:34:59.884Z,2065
2017-05-22T06:36:10.928Z,2015
2017-05-22T06:37:22.196Z,2010
2017-05-22T06:38:33.232Z,2050
2017-05-22T06:39:44.269Z,2100
2017-05-22T06:40:55.296Z,2095
2017-05-22T06:42:06.529Z,2040
2017-05-22T06:43:17.613Z,2115
2017-05-22T06:44:28.650Z,2100
2017-05-22T06:45:39.669Z,2115
2017-05-22T06:46:50.701Z,2090
2017-05-22T06:48:01.747Z,2150
2017-05-22T06:49:12.849Z,2155
2017-05-22T06:50:23.869Z,2110
2017-05-22T06:51:35.100Z,2110
2017-05-22T06:52:46.127Z,2000
2017-05-22T06:53:57.144Z,2100
2017-05-22T06:55:08.232Z,2200
2017-05-22T06:56:19.264Z,2125
2017-05-22T06:57:30.288Z,2040
2017-05-22T06:58:41.324Z,2120
2017-05-22T06:59:52.624Z,2255
2017-05-22T07:01:03.665Z,1730
2017-05-22T07:02:14.690Z,1715
2017-05-22T07:03:25.724Z,2215
2017-05-22T07:04:36.747Z,2165
2017-05-22T07:05:47.880Z,2145
2017-05-22T07:06:58.916Z,2085
2017-05-22T07:08:10.154Z,2255
2017-05-22T07:09:21.179Z,2180
2017-05-22T07:10:32.415Z,2030
2017-05-22T07:11:43.494Z,2120
2017-05-22T07:12:54.530Z,2290
2017-05-22T07:14:05.561Z,2300
2017-05-22T07:15:16.575Z,2290
2017-05-22T07:16:28.008Z,2385
2017-05-22T07:17:39.082Z,2255
2017-05-22T07:18:50.315Z,2275
2017-05-22T07:20:01.347Z,2265
2017-05-22T07:21:12.375Z,2235
2017-05-22T07:22:23.396Z,2290
2017-05-22T07:23:34.491Z,2275
2017-05-22T07:24:45.719Z,2335
2017-05-22T07:25:56.966Z,2325
2017-05-22T07:27:08.009Z,2385
2017-05-22T07:28:19.036Z,2150
2017-05-22T07:29:30.116Z,2030
2017-05-22T07:30:41.149Z,2145
2017-05-22T07:31:52.456Z,2215
2017-05-22T07:33:03.484Z,2420
2017-05-22T07:34:14.724Z,2480
2017-05-22T07:35:25.797Z,2405
2017-05-22T07:36:37.227Z,2280
2017-05-22T07:37:48.464Z,2190
2017-05-22T07:38:59.708Z,2240
2017-05-22T07:40:10.958Z,2260
2017-05-22T07:41:22.249Z,2430
2017-05-22T07:42:33.280Z,2435
2017-05-22T07:43:44.309Z,2435
2017-05-22T07:44:55.340Z,2470
2017-05-22T07:46:06.381Z,2345
2017-05-22T07:47:17.467Z,2330
2017-05-22T07:48:28.511Z,2480
2017-05-22T07:49:39.980Z,2505
2017-05-22T07:50:50.992Z,2475
2017-05-22T07:52:02.232Z,2605
2017-05-22T07:53:13.334Z,2520
2017-05-22T07:54:24.368Z,2630
2017-05-22T07:55:35.404Z,2550
2017-05-22T07:56:46.434Z,2445
2017-05-22T07:57:57.472Z,2465
2017-05-22T07:59:08.540Z,2510
2017-05-22T08:00:19.570Z,2540
2017-05-22T08:01:30.605Z,2320
2017-05-22T08:02:41.642Z,2525
2017-05-22T08:03:52.683Z,2520
2017-05-22T08:05:03.775Z,2550
2017-05-22T08:06:14.820Z,2440
2017-05-22T08:07:25.848Z,2415
2017-05-22T08:08:36.903Z,2475
2017-05-22T08:09:47.935Z,2460
2017-05-22T08:10:58.982Z,2470
2017-05-22T08:12:10.014Z,2620
2017-05-22T08:13:21.044Z,2600
2017-05-22T08:14:32.090Z,2440
2017-05-22T08:15:43.182Z,2345
2017-05-22T08:16:54.213Z,2465
2017-05-22T08:18:05.244Z,2475
2017-05-22T08:19:16.276Z,2500
2017-05-22T08:20:27.313Z,2530
2017-05-22T08:21:38.597Z,2570
2017-05-22T08:22:49.651Z,2435
2017-05-22T08:24:00.692Z,2590
2017-05-22T08:25:11.722Z,2540
2017-05-22T08:26:22.759Z,2505
2017-05-22T08:27:33.852Z,2430
2017-05-22T08:28:44.892Z,2610
2017-05-22T08:29:55.914Z,2595
2017-05-22T08:31:06.951Z,2490
2017-05-22T08:32:18.177Z,2470
2017-05-22T08:33:29.260Z,2410
2017-05-22T08:34:40.297Z,2145
2017-05-22T08:35:51.337Z,2060
2017-05-22T08:37:02.359Z,2380
2017-05-22T08:38:13.795Z,2455
2017-05-22T08:39:24.886Z,2535
2017-05-22T08:40:35.923Z,2460
2017-05-22T08:41:46.953Z,2465
2017-05-22T08:42:57.989Z,2490
2017-05-22T08:44:09.017Z,2470
2017-05-22T08:45:20.097Z,2540
2017-05-22T08:46:31.133Z,2475
2017-05-22T08:47:42.167Z,2260
2017-05-22T08:48:53.197Z,1960
2017-05-22T08:50:04.638Z,2065
2017-05-22T08:51:15.710Z,2205
2017-05-22T08:52:26.739Z,2420
2017-05-22T08:53:37.780Z,2475
2017-05-22T08:54:48.813Z,2475
2017-05-22T08:56:00.042Z,2460
2017-05-22T08:57:11.133Z,2370
2017-05-22T08:58:22.175Z,2390
2017-05-22T08:59:33.411Z,2435
2017-05-22T09:00:44.465Z,2400
2017-05-22T09:01:55.505Z,2500
2017-05-22T09:03:06.606Z,2295
2017-05-22T09:04:17.650Z,2365
2017-05-22T09:05:28.688Z,2490
2017-05-22T09:06:39.723Z,2535
2017-05-22T09:07:50.758Z,2490
2017-05-22T09:09:01.844Z,2320
2017-05-22T09:10:13.475Z,2360
2017-05-22T09:11:24.517Z,2390
2017-05-22T09:12:35.545Z,2505
2017-05-22T09:13:46.579Z,2350
2017-05-22T09:14:57.661Z,2375
2017-05-22T09:16:08.894Z,2410
2017-05-22T09:17:19.921Z,2370
2017-05-22T09:18:31.152Z,2320
2017-05-22T09:19:42.404Z,2425
2017-05-22T09:20:53.442Z,2355
2017-05-22T09:22:04.475Z,2340
2017-05-22T09:23:15.511Z,2280
2017-05-22T09:24:26.741Z,2295
2017-05-22T09:25:37.839Z,2470
2017-05-22T09:26:48.879Z,2305
2017-05-22T09:28:00.105Z,2230
2017-05-22T09:29:11.147Z,2285
2017-05-22T09:30:22.244Z,2280
2017-05-22T09:31:33.524Z,2235
2017-05-22T09:32:44.549Z,2245
2017-05-22T09:33:55.594Z,2290
2017-05-22T09:35:06.624Z,2320
2017-05-22T09:36:17.668Z,2375
2017-05-22T09:37:28.791Z,2315
2017-05-22T09:38:39.825Z,2245
2017-05-22T09:39:51.053Z,2265
2017-05-22T09:41:02.076Z,2270
2017-05-22T09:42:13.111Z,1970
2017-05-22T09:43:24.189Z,2195
2017-05-22T09:44:35.275Z,2370
2017-05-22T09:45:46.311Z,2285
2017-05-22T09:46:57.356Z,2250
2017-05-22T09:48:08.387Z,2310
2017-05-22T09:49:19.531Z,2235
2017-05-22T09:50:30.573Z,2390
2017-05-22T09:51:41.818Z,2355
2017-05-22T09:52:52.876Z,2045
2017-05-22T09:54:03.918Z,645
2017-05-22T09:55:14.997Z,655
2017-05-22T09:56:26.236Z,2120
2017-05-22T09:57:37.278Z,2200
2017-05-22T09:58:48.314Z,2190
2017-05-22T09:59:59.346Z,2195
2017-05-22T10:01:10.428Z,2220
2017-05-22T10:02:21.464Z,2240
2017-05-22T10:03:32.492Z,2200
2017-05-22T10:04:43.516Z,1970
2017-05-22T10:05:54.556Z,1930
2017-05-22T10:07:05.642Z,1705
2017-05-22T10:08:16.684Z,2130
2017-05-22T10:09:27.736Z,2085
2017-05-22T10:10:38.776Z,2215
2017-05-22T10:11:49.802Z,2205
2017-05-22T10:13:00.893Z,2220
2017-05-22T10:14:11.941Z,2205
2017-05-22T10:15:22.967Z,2130
2017-05-22T10:16:33.989Z,2120
2017-05-22T10:17:45.030Z,2180
2017-05-22T10:18:56.116Z,2230
2017-05-22T10:20:07.146Z,2410
2017-05-22T10:21:18.385Z,2560
2017-05-22T10:22:29.416Z,2860
2017-05-22T10:23:40.457Z,3070
2017-05-22T10:24:51.542Z,2730
2017-05-22T10:26:02.589Z,1950
2017-05-22T10:27:13.626Z,505
2017-05-22T10:28:24.868Z,475
2017-05-22T10:29:35.907Z,915
2017-05-22T10:30:46.948Z,730
2017-05-22T10:31:57.974Z,970
2017-05-22T10:33:09.005Z,1005
2017-05-22T10:34:20.031Z,1010
2017-05-22T10:35:31.076Z,1020
2017-05-22T10:36:42.114Z,1040
2017-05-22T10:37:53.199Z,1035
2017-05-22T10:39:04.435Z,1090
2017-05-22T10:40:15.532Z,1165
2017-05-22T10:41:26.585Z,1235
2017-05-22T10:42:37.612Z,1290
2017-05-22T10:43:48.650Z,1345
2017-05-22T10:44:59.690Z,1435
2017-05-22T10:46:11.172Z,1585
2017-05-22T10:47:22.209Z,1605
2017-05-22T10:48:33.248Z,1640
2017-05-22T10:49:44.277Z,1715
2017-05-22T10:50:55.305Z,1805
2017-05-22T10:52:06.378Z,1770
2017-05-22T10:53:17.419Z,1805
2017-05-22T10:54:28.660Z,1775
2017-05-22T10:55:39.889Z,1760
2017-05-22T10:56:51.132Z,1750
2017-05-22T10:58:02.414Z,1700
2017-05-22T10:59:13.456Z,1660
2017-05-22T11:00:24.491Z,1715
2017-05-22T11:01:35.518Z,1690
2017-05-22T11:02:46.762Z,1680
2017-05-22T11:03:57.857Z,1695
2017-05-22T11:05:09.090Z,1655
2017-05-22T11:06:20.123Z,530
2017-05-22T11:07:31.159Z,1600
2017-05-22T11:08:42.410Z,1625
2017-05-22T11:09:53.490Z,1525
2017-05-22T11:11:04.716Z,1500
2017-05-22T11:12:15.753Z,1480
2017-05-22T11:13:26.782Z,1440
2017-05-22T11:14:37.813Z,1520
2017-05-22T11:15:48.902Z,1545
2017-05-22T11:16:59.987Z,1505
2017-05-22T11:18:11.027Z,1455
2017-05-22T11:19:22.047Z,1455
2017-05-22T11:20:33.090Z,1445
2017-05-22T11:21:44.179Z,1470
2017-05-22T11:22:55.195Z,1440
2017-05-22T11:24:06.238Z,1435
2017-05-22T11:25:17.255Z,1380
2017-05-22T11:26:28.288Z,1365
2017-05-22T11:27:39.371Z,1345
2017-05-22T11:28:50.406Z,1165
2017-05-22T11:30:01.450Z,920
2017-05-22T11:31:12.475Z,1250
2017-05-22T11:32:23.502Z,1265
2017-05-22T11:33:34.579Z,1190
2017-05-22T11:34:45.619Z,1150
2017-05-22T11:35:56.643Z,355
2017-05-22T11:37:07.672Z,335
2017-05-22T11:38:18.703Z,330
2017-05-22T11:39:29.991Z,1050
2017-05-22T11:40:41.221Z,1060
2017-05-22T11:41:52.255Z,1040
2017-05-22T11:43:03.494Z,1065
2017-05-22T11:44:14.732Z,1055
2017-05-22T11:45:25.805Z,1070
2017-05-22T11:46:37.039Z,1070
2017-05-22T11:47:48.070Z,1035
2017-05-22T11:48:59.306Z,1020
2017-05-22T11:50:10.329Z,1000
2017-05-22T11:51:21.397Z,970
2017-05-22T11:52:32.633Z,955
2017-05-22T11:53:43.661Z,960
2017-05-22T11:54:54.906Z,955
2017-05-22T11:56:05.947Z,935
2017-05-22T11:57:17.019Z,925
2017-05-22T11:58:28.052Z,935
2017-05-22T11:59:39.276Z,915
2017-05-22T12:00:50.511Z,895
2017-05-22T12:02:01.524Z,880
2017-05-22T12:03:12.804Z,830
2017-05-22T12:04:23.837Z,835
2017-05-22T12:05:35.156Z,825
2017-05-22T12:06:46.185Z,830
2017-05-22T12:07:57.215Z,810
2017-05-22T12:09:08.304Z,810
2017-05-22T12:10:19.539Z,800
2017-05-22T12:11:30.573Z,790
2017-05-22T12:12:41.612Z,785
2017-05-22T12:13:52.652Z,780
2017-05-22T12:15:03.725Z,775
2017-05-22T12:16:14.764Z,775
2017-05-22T12:17:25.792Z,775
2017-05-22T12:18:36.826Z,760
2017-05-22T12:19:47.917Z,760
2017-05-22T12:20:58.949Z,760
2017-05-22T12:22:10.180Z,755
2017-05-22T12:23:21.200Z,745
2017-05-22T12:24:32.224Z,745
2017-05-22T12:25:43.303Z,755
2017-05-22T12:26:54.344Z,735
2017-05-22T12:28:05.578Z,725
2017-05-22T12:29:16.806Z,715
2017-05-22T12:30:27.841Z,700
2017-05-22T12:31:38.915Z,695
2017-05-22T12:32:50.337Z,680
2017-05-22T12:34:01.363Z,665
2017-05-22T12:35:12.593Z,650
2017-05-22T12:36:23.617Z,650
2017-05-22T12:37:34.898Z,635
2017-05-22T12:38:45.918Z,630
2017-05-22T12:39:57.148Z,630
2017-05-22T12:41:08.183Z,620
2017-05-22T12:42:19.222Z,625
2017-05-22T12:43:30.313Z,625
2017-05-22T12:44:41.331Z,610
2017-05-22T12:45:52.347Z,595
2017-05-22T12:47:03.368Z,570
2017-05-22T12:48:14.391Z,550
2017-05-22T12:49:25.473Z,540
2017-05-22T12:50:36.504Z,520
2017-05-22T12:51:47.532Z,495
2017-05-22T12:52:58.563Z,470
2017-05-22T12:54:09.999Z,440
2017-05-22T12:55:21.085Z,435
2017-05-22T12:56:32.114Z,425
2017-05-22T12:57:43.149Z,415
2017-05-22T12:58:54.180Z,410
2017-05-22T13:00:05.215Z,410
2017-05-22T13:01:16.298Z,405
2017-05-22T13:02:27.383Z,405
2017-05-22T13:03:38.416Z,405
2017-05-22T13:04:49.655Z,405
2017-05-22T13:06:00.679Z,405
2017-05-22T13:07:11.748Z,405
2017-05-22T13:08:22.781Z,410
2017-05-22T13:09:34.019Z,420
2017-05-22T13:10:45.245Z,425
2017-05-22T13:11:56.279Z,425
2017-05-22T13:13:07.362Z,425
2017-05-22T13:14:18.381Z,420
2017-05-22T13:15:29.618Z,420
2017-05-22T13:16:40.645Z,420
2017-05-22T13:17:51.670Z,420
2017-05-22T13:19:02.747Z,420
2017-05-22T13:20:13.772Z,420
2017-05-22T13:21:24.800Z,415
2017-05-22T13:22:36.025Z,420
2017-05-22T13:23:47.050Z,420
2017-05-22T13:24:58.116Z,420
2017-05-22T13:26:09.145Z,420
2017-05-22T13:27:20.166Z,410
2017-05-22T13:28:31.190Z,410
2017-05-22T13:29:42.213Z,420
2017-05-22T13:30:53.229Z,425
2017-05-22T13:32:04.453Z,425
2017-05-22T13:33:15.479Z,425
2017-05-22T13:34:26.511Z,415
2017-05-22T13:35:37.799Z,415
2017-05-22T13:36:48.824Z,415
2017-05-22T13:38:00.063Z,410
2017-05-22T13:39:11.093Z,425
2017-05-22T13:40:22.115Z,440
2017-05-22T13:41:33.191Z,435
2017-05-22T13:42:44.427Z,430
2017-05-22T13:43:55.467Z,410
2017-05-22T13:45:06.477Z,410
2017-05-22T13:46:17.501Z,405
2017-05-22T13:47:28.578Z,415
2017-05-22T13:48:39.597Z,430
2017-05-22T13:49:50.633Z,465
2017-05-22T13:51:01.648Z,515
2017-05-22T13:52:12.726Z,540
2017-05-22T13:53:23.799Z,525
2017-05-22T13:54:34.819Z,525
2017-05-22T13:55:45.844Z,520
2017-05-22T13:56:56.880Z,530
2017-05-22T13:58:07.906Z,555
2017-05-22T13:59:19.056Z,550
2017-05-22T14:00:30.103Z,520
2017-05-22T14:01:41.125Z,535
2017-05-22T14:02:52.164Z,550
2017-05-22T14:04:03.185Z,525
2017-05-22T14:05:14.254Z,515
2017-05-22T14:06:25.281Z,500
2017-05-22T14:07:36.313Z,490
2017-05-22T14:08:47.337Z,500
2017-05-22T14:09:58.364Z,500
2017-05-22T14:11:09.446Z,505
2017-05-22T14:12:20.669Z,510
2017-05-22T14:13:31.691Z,505
2017-05-22T14:14:42.717Z,510
2017-05-22T14:15:53.740Z,510
2017-05-22T14:17:04.811Z,510
2017-05-22T14:18:15.852Z,505
2017-05-22T14:19:26.863Z,485
2017-05-22T14:20:37.888Z,495
2017-05-22T14:21:49.110Z,480
2017-05-22T14:23:00.182Z,445
2017-05-22T14:24:11.205Z,445
2017-05-22T14:25:22.232Z,395
2017-05-22T14:26:33.267Z,335
2017-05-22T14:27:44.297Z,300
2017-05-22T14:28:55.385Z,290
2017-05-22T14:30:06.411Z,285
2017-05-22T14:31:17.492Z,280
2017-05-22T14:32:28.500Z,275
2017-05-22T14:33:39.532Z,270
2017-05-22T14:34:50.619Z,270
2017-05-22T14:36:01.640Z,270
2017-05-22T14:37:12.662Z,270
2017-05-22T14:38:23.682Z,275
2017-05-22T14:39:34.717Z,290
2017-05-22T14:40:45.750Z,280
2017-05-22T14:41:56.768Z,275
2017-05-22T14:43:07.805Z,265
2017-05-22T14:44:18.833Z,260
2017-05-22T14:45:29.924Z,255
2017-05-22T14:46:40.960Z,250
2017-05-22T14:47:52.241Z,250
2017-05-22T14:49:03.265Z,250
2017-05-22T14:50:14.300Z,250
2017-05-22T14:51:25.370Z,250
2017-05-22T14:52:36.391Z,250
2017-05-22T14:53:47.644Z,245
2017-05-22T14:54:58.670Z,245
2017-05-22T14:56:09.901Z,240
2017-05-22T14:57:20.971Z,240
2017-05-22T14:58:32.199Z,240
2017-05-22T14:59:43.222Z,235
2017-05-22T15:00:54.245Z,235
2017-05-22T15:02:05.274Z,230
2017-05-22T15:03:16.340Z,230
2017-05-22T15:04:27.356Z,235
2017-05-22T15:05:38.576Z,230
2017-05-22T15:06:49.594Z,230
2017-05-22T15:08:00.630Z,230
2017-05-22T15:09:11.909Z,225
2017-05-22T15:10:22.923Z,225
2017-05-22T15:11:34.157Z,220
2017-05-22T15:12:45.173Z,215
2017-05-22T15:13:56.205Z,215
2017-05-22T15:15:07.482Z,215
2017-05-22T15:16:18.712Z,215
2017-05-22T15:17:29.921Z,215
2017-05-22T15:18:40.939Z,220
2017-05-22T15:19:51.964Z,220
2017-05-22T15:21:02.979Z,220
2017-05-22T15:22:14.203Z,220
2017-05-22T15:23:25.225Z,220
2017-05-22T15:24:36.253Z,220
2017-05-22T15:25:47.519Z,215
2017-05-22T15:26:58.547Z,215
2017-05-22T15:28:09.786Z,210
2017-05-22T15:29:20.817Z,205
2017-05-22T15:30:31.843Z,185
2017-05-22T15:31:43.119Z,175
2017-05-22T15:32:54.153Z,175
2017-05-22T15:34:05.178Z,170
2017-05-22T15:35:16.203Z,170
2017-05-22T15:36:27.236Z,165
2017-05-22T15:37:38.311Z,165
2017-05-22T15:38:49.330Z,160
2017-05-22T15:40:00.352Z,165
2017-05-22T15:41:11.360Z,165
2017-05-22T15:42:22.785Z,160
2017-05-22T15:43:33.858Z,155
2017-05-22T15:44:44.874Z,155
2017-05-22T15:45:55.911Z,155
2017-05-22T15:47:06.933Z,150
2017-05-22T15:48:18.155Z,165
2017-05-22T15:49:29.433Z,170
2017-05-22T15:50:40.455Z,175
2017-05-22T15:51:51.473Z,175
2017-05-22T15:53:02.696Z,175
2017-05-22T15:54:13.725Z,180
2017-05-22T15:55:24.798Z,190
2017-05-22T15:56:36.029Z,185
2017-05-22T15:57:47.050Z,190
2017-05-22T15:58:58.115Z,200
2017-05-22T16:00:09.344Z,205
2017-05-22T16:01:20.413Z,210
2017-05-22T16:02:31.454Z,220
2017-05-22T16:03:42.489Z,220
2017-05-22T16:04:53.717Z,230
2017-05-22T16:06:04.939Z,235
2017-05-22T16:07:16.208Z,245
2017-05-22T16:08:27.225Z,255
2017-05-22T16:09:38.253Z,260
2017-05-22T16:10:49.472Z,260
2017-05-22T16:12:00.696Z,255
2017-05-22T16:13:11.772Z,255
2017-05-22T16:14:22.844Z,250
2017-05-22T16:15:33.868Z,230
2017-05-22T16:16:44.933Z,225
2017-05-22T16:17:55.950Z,220
2017-05-22T16:19:07.024Z,210
2017-05-22T16:20:18.044Z,205
2017-05-22T16:21:29.283Z,210
2017-05-22T16:22:40.696Z,205